Latest Weather Observations for Essendon Airport

IDV60801

Issued at 7:35 pm EST Friday 1 August 2014 (issued every 30 minutes, with the page automatically refreshed every 10 minutes)

About weather observations | Map of weather stations | Latest weather observations for VIC | Other Formats
Station Details ID: 086038 Name: ESSENDON AIRPORT Lat: -37.73 Lon: 144.91 Height: 78.4 m
Data from the previous 72 hours. | See also: Recent months at Essendon Airport
Date/Time
EST
Temp
°C
App
Temp
°C
Dew
Point
Rel
Hum
%
Delta-T
°C
Wind Press
QNH
hPa
Press
MSL
hPa
Rain
since 9 am
mm
Dir
 
Spd
km/h
Gust
km/h
Spd
kts
Gust
kts
01/07:30pm 5.8 -1.8 3.8 87 0.8 W 33 43 18 23 1017.5 - 3.2
01/07:00pm 6.0 -1.7 3.5 84 1.1 WSW 33 44 18 24 1016.3 - 3.0
01/06:30pm 5.7 -1.0 3.9 88 0.8 WSW 28 39 15 21 1016.0 - 3.0
01/06:00pm 6.1 -1.9 3.9 86 0.9 WSW 35 61 19 33 1015.0 1015.2 2.6
01/05:59pm 6.1 -1.9 3.9 86 0.9 WSW 35 61 19 33 1015.0 - 2.6
01/05:30pm 6.2 -1.4 3.9 85 1.0 WSW 33 46 18 25 1013.7 - 2.4
01/05:17pm 6.6 0.0 4.4 86 1.0 WSW 28 52 15 28 1013.5 - 2.4
01/05:00pm 6.4 0.6 4.2 86 0.9 SW 24 33 13 18 1013.1 - 1.8
01/04:30pm 8.7 1.6 3.5 70 2.2 W 30 39 16 21 1011.7 - 0.8
01/04:00pm 8.1 0.6 3.6 73 1.9 W 32 43 17 23 1011.2 - 0.8
01/03:30pm 8.3 0.7 3.0 69 2.3 W 32 43 17 23 1010.4 - 0.8
01/03:06pm 9.0 1.9 3.6 69 2.3 W 30 50 16 27 1009.8 - 0.8
01/03:00pm 9.2 2.1 3.8 69 2.4 W 30 43 16 23 1009.8 1009.9 0.8
01/02:30pm 9.1 2.6 4.9 75 1.9 W 28 41 15 22 1009.1 - 0.8
01/02:00pm 8.3 2.1 4.1 75 1.8 W 26 39 14 21 1008.3 - 0.8
01/01:30pm 6.7 2.6 4.2 84 1.1 WSW 15 22 8 12 1008.0 - 0.8
01/01:00pm 8.0 1.3 3.8 75 1.8 W 28 39 15 21 1007.6 - 0.4
01/12:30pm 7.4 -0.2 4.0 79 1.5 WNW 33 44 18 24 1006.8 - 0.4
01/12:05pm 6.1 -2.6 3.9 86 0.9 WNW 39 57 21 31 1006.4 - 0.4
01/12:00pm 5.7 -3.9 3.4 85 1.0 WNW 43 57 23 31 1006.5 1006.6 0.4
01/11:42am 7.7 -3.2 3.4 74 1.8 W 50 69 27 37 1006.3 - 0.0
01/11:35am 8.1 -4.4 1.9 65 2.6 W 57 69 31 37 1005.8 - 0.0
01/11:33am 8.7 0.7 1.8 62 2.9 WNW 33 61 18 33 1005.8 - 0.0
01/11:30am 8.6 0.8 2.0 63 2.8 WNW 32 46 17 25 1005.8 - 0.0
01/11:00am 9.7 2.8 2.3 60 3.1 NW 28 52 15 28 1005.3 - 0.0
01/10:30am 8.3 3.0 3.0 69 2.3 N 20 30 11 16 1005.0 - 0.0
01/10:00am 8.3 2.3 3.2 70 2.2 N 24 33 13 18 1004.9 - 0.0
01/09:30am 7.3 0.4 2.4 71 2.0 N 28 41 15 22 1003.9 - 0.0
01/09:00am 6.8 0.2 2.1 72 1.9 N 26 39 14 21 1004.0 1004.0 6.8
01/08:30am 6.4 -0.2 2.1 74 1.8 N 26 39 14 21 1003.5 - 6.8
01/08:00am 5.4 0.1 1.7 77 1.5 N 19 24 10 13 1003.9 - 6.8
01/07:30am 5.3 -1.0 1.4 76 1.5 NNW 24 35 13 19 1003.4 - 6.8
01/07:02am 5.6 -2.8 1.3 74 1.7 NNW 35 54 19 29 1001.9 - 6.8
01/07:00am 5.6 -3.2 1.2 73 1.7 NNW 37 54 20 29 1001.7 - 6.8
01/06:30am 6.1 -3.1 1.4 72 1.9 NNW 39 65 21 35 1000.6 - 6.8
01/06:17am 5.9 -2.5 1.4 73 1.8 NNW 35 54 19 29 1000.9 - 6.8
01/06:00am 5.8 -2.2 1.5 74 1.7 NNW 33 46 18 25 1000.9 1001.0 6.8
01/05:30am 5.7 -0.9 1.8 76 1.6 N 26 35 14 19 1001.7 - 6.8
01/05:00am 5.6 -0.7 1.7 76 1.6 N 24 33 13 18 1002.0 - 6.8
01/04:30am 5.6 -0.3 1.5 75 1.6 N 22 32 12 17 1001.9 - 6.8
01/04:00am 5.9 0.0 1.4 73 1.8 N 22 30 12 16 1002.0 - 6.8
01/03:30am 5.8 0.5 1.7 75 1.6 N 19 22 10 12 1002.4 - 6.8
01/03:00am 5.8 1.3 1.9 76 1.6 N 15 20 8 11 1003.0 1003.0 6.8
01/02:30am 5.6 0.7 1.7 76 1.6 N 17 24 9 13 1002.2 - 6.8
01/02:00am 5.9 0.6 1.6 74 1.7 N 19 28 10 15 1002.0 - 6.8
01/01:30am 5.9 0.0 1.6 74 1.7 NNW 22 32 12 17 1001.8 - 6.8
01/01:00am 6.3 0.4 1.6 72 1.9 NNW 22 32 12 17 1001.8 - 6.8
01/12:30am 6.9 0.6 1.4 68 2.2 NW 24 33 13 18 1002.0 - 6.8
01/12:00am 7.2 0.1 1.3 66 2.4 NW 28 39 15 21 1002.1 1002.2 6.8
 
Date/Time
EST
Temp
°C
App
Temp
°C
Dew
Point
Rel
Hum
%
Delta-T
°C
Wind Press
QNH
hPa
Press
MSL
hPa
Rain
since 9 am
mm
Dir
 
Spd
km/h
Gust
km/h
Spd
kts
Gust
kts
31/11:30pm 7.5 0.4 1.6 66 2.4 WNW 28 37 15 20 1002.1 - 6.8
31/11:00pm 7.6 1.2 1.2 64 2.6 WNW 24 39 13 21 1002.1 - 6.8
31/10:30pm 7.7 0.7 1.8 66 2.4 WNW 28 35 15 19 1001.9 - 6.8
31/10:00pm 7.4 -0.2 2.7 72 2.0 NW 32 41 17 22 1001.4 - 6.8
31/09:30pm 7.5 -1.1 2.8 72 2.0 WNW 37 50 20 27 1001.7 - 6.8
31/09:04pm 8.0 -1.4 2.5 68 2.3 WNW 41 59 22 32 1001.7 - 6.8
31/09:00pm 7.8 -1.2 2.5 69 2.2 WNW 39 50 21 27 1001.6 1001.7 6.8
31/08:30pm 7.8 1.0 2.9 71 2.1 WNW 28 43 15 23 1001.0 - 6.8
31/08:00pm 7.5 1.1 3.4 75 1.7 NW 26 39 14 21 1001.2 - 6.8
31/07:30pm 6.9 1.5 4.6 85 1.0 NW 22 32 12 17 1001.0 - 6.8
31/07:00pm 6.6 2.2 4.8 88 0.8 NW 17 24 9 13 1000.9 - 6.6
31/06:30pm 6.3 1.3 4.8 90 0.7 NW 20 30 11 16 1000.5 - 6.6
31/06:00pm 6.5 1.9 5.5 93 0.4 WNW 19 28 10 15 1000.2 1000.3 6.4
31/05:30pm 6.5 -0.3 5.3 92 0.5 W 30 43 16 23 1000.1 - 5.6
31/05:26pm 6.6 -0.1 5.4 92 0.5 W 30 43 16 23 1000.0 - 5.4
31/05:15pm 6.7 -0.5 5.7 93 0.4 W 33 48 18 26 999.7 - 5.0
31/05:00pm 7.2 -0.3 6.1 93 0.5 WSW 35 46 19 25 999.6 - 4.4
31/04:45pm 7.6 0.5 6.5 93 0.5 W 33 44 18 24 999.2 - 3.2
31/04:30pm 8.2 3.0 7.3 94 0.4 W 24 32 13 17 999.1 - 2.4
31/04:11pm 8.3 3.5 7.4 94 0.4 W 22 30 12 16 998.7 - 1.6
31/04:00pm 8.3 1.6 7.2 93 0.5 W 32 43 17 23 998.5 - 1.2
31/03:49pm 8.5 1.6 7.4 93 0.5 W 33 48 18 26 998.3 - 0.8
31/03:45pm 8.5 1.2 7.3 92 0.6 W 35 54 19 29 998.2 - 0.6
31/03:37pm 8.6 -0.2 7.1 90 0.7 W 43 54 23 29 997.8 - 0.0
31/03:30pm 8.9 -1.0 6.7 86 1.0 WSW 48 65 26 35 997.8 - 0.0
31/03:18pm 10.2 -0.3 5.4 72 2.2 WSW 50 70 27 38 997.2 - 0.0
31/03:10pm 12.7 2.0 4.4 57 3.8 W 50 70 27 38 996.6 - 0.0
31/03:08pm 17.8 8.4 5.4 44 6.0 WNW 44 67 24 36 996.0 - 0.0
31/03:00pm 18.0 7.9 5.6 44 6.1 NNW 48 76 26 41 995.0 995.1 0.0
31/02:30pm 18.5 7.1 5.0 41 6.5 NNW 54 76 29 41 994.0 - 0.0
31/02:00pm 18.8 6.9 5.3 41 6.6 NNW 57 93 31 50 994.3 - 0.0
31/01:55pm 18.4 6.0 4.9 41 6.5 NNW 59 93 32 50 994.2 - 0.0
31/01:30pm 17.9 7.1 5.8 45 5.9 NNW 52 74 28 40 993.8 - 0.0
31/01:00pm 17.9 7.1 6.1 46 5.8 NNW 52 78 28 42 994.7 - 0.0
31/12:30pm 17.7 7.7 6.3 47 5.6 NNW 48 78 26 42 996.0 - 0.0
31/12:22pm 17.5 6.1 6.7 49 5.4 NNW 56 78 30 42 996.0 - 0.0
31/12:21pm 17.4 4.6 6.3 48 5.5 NNW 63 78 34 42 996.0 - 0.0
31/12:00pm 17.0 8.0 6.2 49 5.3 NNW 43 76 23 41 997.3 997.4 0.0
31/11:30am 17.2 7.6 6.4 49 5.3 NNW 46 67 25 36 997.7 - 0.0
31/11:00am 16.7 7.5 6.5 51 5.0 N 44 69 24 37 998.4 - 0.0
31/10:30am 15.8 8.5 7.3 57 4.2 N 35 54 19 29 999.5 - 0.0
31/10:10am 15.6 7.7 7.9 60 3.9 N 39 57 21 31 999.3 - 0.0
31/10:00am 15.5 8.0 7.8 60 3.9 N 37 54 20 29 999.4 - 0.0
31/09:35am 14.6 7.2 8.5 67 3.1 N 37 56 20 30 999.9 - 0.0
31/09:30am 14.4 6.6 8.4 67 3.0 N 39 54 21 29 999.9 - 0.0
31/09:00am 14.2 6.1 8.6 69 2.8 N 41 61 22 33 1000.4 1000.5 0.0
31/08:30am 13.9 4.8 8.3 69 2.8 N 46 69 25 37 1000.5 - 0.0
31/08:00am 13.3 4.6 8.4 72 2.5 N 44 63 24 34 1000.9 - 0.0
31/07:30am 13.2 4.6 8.3 72 2.4 N 43 61 23 33 1001.3 - 0.0
31/07:00am 13.1 4.4 8.4 73 2.3 N 44 63 24 34 1001.6 - 0.0
31/06:30am 13.2 4.5 8.3 72 2.4 N 44 63 24 34 1002.1 - 0.0
31/06:15am 13.2 5.8 8.3 72 2.4 N 37 65 20 35 1002.4 - 0.0
31/06:00am 13.7 5.9 8.1 69 2.8 N 39 54 21 29 1002.4 1002.5 0.0
31/05:32am 13.8 7.3 8.0 68 2.9 N 32 52 17 28 1003.2 - 0.0
31/05:30am 13.6 7.1 8.0 69 2.8 N 32 46 17 25 1003.3 - 0.0
31/05:20am 13.7 7.9 7.9 68 2.9 N 28 46 15 25 1003.4 - 0.0
31/05:00am 13.9 8.9 7.9 67 3.0 N 24 39 13 21 1003.8 - 0.0
31/04:30am 13.1 8.7 7.3 68 2.8 N 20 28 11 15 1004.4 - 0.0
31/04:00am 13.5 9.1 7.3 66 3.0 N 20 44 11 24 1004.9 - 0.0
31/03:30am 13.1 8.2 6.9 66 3.0 N 22 28 12 15 1005.4 - 0.0
31/03:00am 13.7 9.0 7.7 67 3.0 N 22 35 12 19 1006.2 1006.3 0.0
31/02:30am 14.6 8.8 7.9 64 3.3 NNW 28 48 15 26 1006.7 - 0.0
31/02:14am 14.8 9.0 8.1 64 3.4 N 28 50 15 27 1006.9 - 0.0
31/02:00am 14.5 9.9 8.0 65 3.3 N 22 33 12 18 1007.2 - 0.0
31/01:30am 14.8 7.8 8.5 66 3.2 NNW 35 44 19 24 1007.5 - 0.0
31/01:00am 15.2 8.9 8.9 66 3.2 NNW 32 50 17 27 1007.8 - 0.0
31/12:32am 15.2 9.2 8.7 65 3.3 NNW 30 48 16 26 1008.0 - 0.0
31/12:30am 15.2 8.8 8.4 64 3.4 NNW 32 48 17 26 1008.1 - 0.0
31/12:00am 15.1 8.6 8.8 66 3.2 NNW 33 52 18 28 1008.5 1008.6 0.0
 
Date/Time
EST
Temp
°C
App
Temp
°C
Dew
Point
Rel
Hum
%
Delta-T
°C
Wind Press
QNH
hPa
Press
MSL
hPa
Rain
since 9 am
mm
Dir
 
Spd
km/h
Gust
km/h
Spd
kts
Gust
kts
30/11:59pm 15.1 8.8 8.8 66 3.2 NNW 32 52 17 28 1008.6 - 0.0
30/11:30pm 14.6 9.6 9.6 72 2.6 N 26 39 14 21 1009.1 - 0.0
30/11:00pm 14.9 10.2 9.1 68 3.0 N 24 35 13 19 1009.3 - 0.0
30/10:30pm 14.7 10.6 8.6 67 3.1 N 20 28 11 15 1009.8 - 0.0
30/10:00pm 15.4 9.6 7.9 61 3.8 N 28 39 15 21 1010.1 - 0.0
30/09:30pm 15.2 9.5 8.2 63 3.5 N 28 41 15 22 1010.4 - 0.0
30/09:00pm 15.1 9.9 8.8 66 3.2 N 26 35 14 19 1010.4 1010.5 0.0
30/08:30pm 15.2 11.0 8.4 64 3.4 N 20 32 11 17 1010.4 - 0.0
30/08:00pm 15.2 10.3 8.4 64 3.4 N 24 37 13 20 1010.3 - 0.0
30/07:30pm 15.6 9.5 8.1 61 3.8 NNW 30 43 16 23 1010.5 - 0.0
30/07:00pm 15.7 10.5 8.9 64 3.5 N 26 37 14 20 1010.2 - 0.0
30/06:49pm 15.9 10.4 9.1 64 3.5 N 28 48 15 26 1010.1 - 0.0
30/06:30pm 15.8 10.8 9.5 66 3.3 N 26 43 14 23 1010.0 - 0.0
30/06:00pm 16.0 11.3 9.2 64 3.5 N 24 44 13 24 1010.1 1010.2 0.0
30/05:45pm 16.1 9.9 9.3 64 3.5 NNW 32 50 17 27 1010.0 - 0.0
30/05:30pm 16.2 9.8 9.4 64 3.5 NNW 33 46 18 25 1010.0 - 0.0
30/05:00pm 16.3 9.6 9.5 64 3.5 NNW 35 46 19 25 1010.2 - 0.0
30/04:30pm 16.0 9.9 9.9 67 3.2 NNW 32 44 17 24 1010.0 - 0.0
30/04:00pm 16.3 10.3 10.2 67 3.2 NNW 32 48 17 26 1010.1 - 0.0
30/03:56pm 16.3 10.7 10.2 67 3.2 NNW 30 48 16 26 1010.1 - 0.0
30/03:30pm 16.5 10.1 10.6 68 3.1 NNW 35 48 19 26 1010.2 - 0.0
30/03:05pm 16.6 9.3 10.2 66 3.4 NNW 39 57 21 31 1010.1 - 0.0
30/03:00pm 16.8 9.9 10.2 65 3.5 NNW 37 54 20 29 1010.0 1010.1 0.0
30/02:59pm 16.9 10.4 10.3 65 3.5 NNW 35 54 19 29 1010.1 - 0.0
30/02:30pm 17.1 10.3 10.5 65 3.5 NNW 37 52 20 28 1009.9 - 0.0
30/02:16pm 17.5 10.6 10.4 63 3.8 NNW 37 56 20 30 1009.6 - 0.0
30/02:00pm 18.2 11.6 11.3 64 3.8 NNW 37 50 20 27 1009.8 - 0.0
30/01:30pm 17.3 9.4 10.7 65 3.5 NNW 43 56 23 30 1010.1 - 0.0
30/01:12pm 17.6 11.8 10.7 64 3.7 NNW 32 54 17 29 1010.4 - 0.0
30/01:00pm 17.9 12.3 11.5 66 3.5 NNW 32 43 17 23 1010.7 - 0.0
30/12:30pm 18.3 13.4 11.4 64 3.8 NNW 28 39 15 21 1011.0 - 0.0
30/12:07pm 18.0 12.7 11.1 64 3.8 N 30 48 16 26 1011.3 - 0.0
30/12:00pm 16.9 10.3 10.1 64 3.6 NNW 35 48 19 26 1011.4 1011.5 0.0
30/11:30am 17.2 11.3 10.3 64 3.7 NNW 32 41 17 22 1012.3 - 0.0
30/11:00am 17.5 12.3 10.1 62 3.9 NW 28 41 15 22 1012.6 - 0.0
30/10:30am 16.6 10.7 10.5 67 3.3 NNW 32 43 17 23 1012.7 - 0.0
30/10:19am 16.3 10.7 10.2 67 3.2 NNW 30 48 16 26 1012.9 - 0.0
30/10:00am 16.1 12.2 10.8 71 2.8 N 22 33 12 18 1013.0 - 0.0
30/09:30am 15.0 10.1 10.0 72 2.6 N 26 35 14 19 1012.8 - 0.0
30/09:00am 13.8 9.2 9.5 75 2.2 N 24 32 13 17 1012.7 1012.8 0.0
30/08:30am 13.4 8.7 9.3 76 2.1 N 24 39 13 21 1012.4 - 0.0
30/08:00am 13.0 8.0 9.4 79 1.8 N 26 37 14 20 1012.2 - 0.0
30/07:30am 11.7 8.5 9.8 88 1.0 N 17 24 9 13 1012.2 - 0.0
30/07:00am 11.4 8.2 9.8 90 0.8 N 17 22 9 12 1012.2 - 0.0
30/06:30am 11.6 8.8 10.0 90 0.8 N 15 19 8 10 1012.2 - 0.0
30/06:00am 12.3 9.5 10.0 86 1.2 N 15 19 8 10 1012.1 1012.2 0.0
30/05:30am 12.8 9.6 9.8 82 1.5 NNW 17 20 9 11 1011.9 - 0.0
30/05:00am 13.9 9.9 9.1 73 2.4 NW 20 32 11 17 1011.8 - 0.0
30/04:30am 14.1 10.4 9.5 74 2.4 NNW 19 26 10 14 1011.4 - 0.0
30/04:00am 14.0 10.3 9.6 75 2.3 N 19 24 10 13 1011.3 - 0.0
30/03:30am 13.9 10.3 9.7 76 2.2 N 19 24 10 13 1011.4 - 0.0
30/03:00am 14.0 10.5 10.2 78 2.0 N 19 24 10 13 1011.4 1011.5 0.0
30/02:30am 14.0 10.9 10.4 79 1.9 N 17 24 9 13 1011.5 - 0.0
30/02:00am 13.7 10.7 10.5 81 1.7 N 17 20 9 11 1011.3 - 0.0
30/01:30am 14.2 10.6 10.6 79 1.9 N 20 28 11 15 1011.4 - 0.0
30/01:00am 14.8 11.1 10.2 74 2.4 NNW 20 32 11 17 1011.4 - 0.0
30/12:30am 15.2 10.3 10.0 71 2.7 NW 26 39 14 21 1011.1 - 0.0
30/12:00am 15.0 10.2 10.2 73 2.5 NNW 26 37 14 20 1010.9 1011.0 0.0
 
Date/Time
EST
Temp
°C
App
Temp
°C
Dew
Point
Rel
Hum
%
Delta-T
°C
Wind Press
QNH
hPa
Press
MSL
hPa
Rain
since 9 am
mm
Dir
 
Spd
km/h
Gust
km/h
Spd
kts
Gust
kts
29/11:30pm 15.1 9.9 10.1 72 2.6 NNW 28 37 15 20 1010.7 - 0.0
29/11:00pm 15.3 10.1 10.1 71 2.7 NNW 28 39 15 21 1010.5 - 0.0
29/10:30pm 15.5 9.9 10.1 70 2.8 NNW 30 39 16 21 1010.4 - 0.0
29/10:00pm 15.4 10.2 10.2 71 2.7 NNW 28 37 15 20 1009.9 - 0.0
29/09:30pm 15.5 10.8 10.5 72 2.6 NNW 26 33 14 18 1010.0 - 0.0
29/09:00pm 15.4 10.7 10.6 73 2.5 NNW 26 35 14 19 1010.1 1010.2 0.0
29/08:30pm 15.3 11.6 10.1 71 2.7 NNW 20 28 11 15 1009.9 - 0.0
29/08:00pm 15.6 10.4 10.4 71 2.7 NNW 28 44 15 24 1009.7 - 0.0

Other Formats:

Comma delimited format used in spreadsheet applications
http://www.bom.gov.au/fwo/IDV60801/IDV60801.95866.axf

JavaScript Object Notation format (JSON) in row-major order
http://www.bom.gov.au/fwo/IDV60801/IDV60801.95866.json